sensor_id;sensor_type;location;lat;lon;timestamp;pressure;altitude;pressure_sealevel;temperature;humidity
21203;BME280;10759;51.982;9.232;2023-04-01T00:02:04;98281.72;;;11.25;100.00
21203;BME280;10759;51.982;9.232;2023-04-01T00:04:32;98282.16;;;11.19;100.00
21203;BME280;10759;51.982;9.232;2023-04-01T00:07:01;98268.97;;;11.16;100.00
21203;BME280;10759;51.982;9.232;2023-04-01T00:09:28;98279.19;;;11.11;100.00
21203;BME280;10759;51.982;9.232;2023-04-01T00:11:56;98280.78;;;11.13;100.00
21203;BME280;10759;51.982;9.232;2023-04-01T00:14:24;98264.66;;;10.89;100.00
21203;BME280;10759;51.982;9.232;2023-04-01T00:16:52;98239.75;;;10.76;100.00
21203;BME280;10759;51.982;9.232;2023-04-01T00:19:21;98279.09;;;11.12;100.00
21203;BME280;10759;51.982;9.232;2023-04-01T00:21:49;98267.63;;;11.10;100.00
21203;BME280;10759;51.982;9.232;2023-04-01T00:24:18;98267.13;;;10.92;100.00
21203;BME280;10759;51.982;9.232;2023-04-01T00:26:46;98279.59;;;11.17;100.00
21203;BME280;10759;51.982;9.232;2023-04-01T00:29:14;98275.06;;;10.94;100.00
21203;BME280;10759;51.982;9.232;2023-04-01T00:31:42;98276.94;;;11.05;100.00
21203;BME280;10759;51.982;9.232;2023-04-01T00:34:10;98282.28;;;11.17;100.00
21203;BME280;10759;51.982;9.232;2023-04-01T00:36:39;98266.00;;;11.08;100.00
21203;BME280;10759;51.982;9.232;2023-04-01T00:39:07;98241.25;;;11.04;100.00
21203;BME280;10759;51.982;9.232;2023-04-01T00:41:35;98275.09;;;11.18;100.00
21203;BME280;10759;51.982;9.232;2023-04-01T00:44:18;98274.41;;;11.27;100.00
21203;BME280;10759;51.982;9.232;2023-04-01T00:46:47;98227.97;;;11.03;100.00
21203;BME280;10759;51.982;9.232;2023-04-01T00:49:17;98265.53;;;11.14;100.00
21203;BME280;10759;51.982;9.232;2023-04-01T00:51:50;98269.97;;;11.15;100.00
21203;BME280;10759;51.982;9.232;2023-04-01T00:54:20;98264.88;;;11.23;100.00
21203;BME280;10759;51.982;9.232;2023-04-01T00:56:51;98240.31;;;10.92;100.00
21203;BME280;10759;51.982;9.232;2023-04-01T00:59:24;98265.25;;;11.06;100.00
21203;BME280;10759;51.982;9.232;2023-04-01T01:01:53;98261.97;;;10.89;100.00
21203;BME280;10759;51.982;9.232;2023-04-01T01:04:22;98276.66;;;10.96;100.00
21203;BME280;10759;51.982;9.232;2023-04-01T01:06:59;98179.81;;;10.40;100.00
21203;BME280;10759;51.982;9.232;2023-04-01T01:09:36;98269.81;;;10.80;100.00
21203;BME280;10759;51.982;9.232;2023-04-01T01:12:11;98265.84;;;10.85;100.00
21203;BME280;10759;51.982;9.232;2023-04-01T01:14:58;98261.38;;;10.86;100.00
21203;BME280;10759;51.982;9.232;2023-04-01T01:17:40;98261.38;;;10.86;100.00
21203;BME280;10759;51.982;9.232;2023-04-01T01:20:48;98241.38;;;10.66;100.00
21203;BME280;10759;51.982;9.232;2023-04-01T01:29:42;98252.44;;;10.85;100.00
21203;BME280;10759;51.982;9.232;2023-04-01T01:32:19;98254.59;;;10.93;100.00
21203;BME280;10759;51.982;9.232;2023-04-01T01:37:29;98249.06;;;10.83;100.00
21203;BME280;10759;51.982;9.232;2023-04-01T01:40:03;98250.19;;;10.92;100.00
21203;BME280;10759;51.982;9.232;2023-04-01T01:42:35;98257.47;;;10.90;100.00
21203;BME280;10759;51.982;9.232;2023-04-01T01:45:06;98201.63;;;10.60;100.00
21203;BME280;10759;51.982;9.232;2023-04-01T01:47:35;98258.88;;;10.95;100.00
21203;BME280;10759;51.982;9.232;2023-04-01T01:50:07;98265.50;;;11.03;100.00
21203;BME280;10759;51.982;9.232;2023-04-01T01:52:36;98261.84;;;11.04;100.00
21203;BME280;10759;51.982;9.232;2023-04-01T01:55:23;98262.31;;;10.85;100.00
21203;BME280;10759;51.982;9.232;2023-04-01T01:57:52;98253.44;;;10.84;100.00
21203;BME280;10759;51.982;9.232;2023-04-01T02:00:20;98258.13;;;10.93;100.00
21203;BME280;10759;51.982;9.232;2023-04-01T02:02:49;98255.72;;;11.02;100.00
21203;BME280;10759;51.982;9.232;2023-04-01T02:05:19;98251.88;;;11.06;100.00
21203;BME280;10759;51.982;9.232;2023-04-01T02:07:57;98247.66;;;10.78;100.00
21203;BME280;10759;51.982;9.232;2023-04-01T02:10:31;98261.19;;;10.76;100.00
21203;BME280;10759;51.982;9.232;2023-04-01T02:13:07;98262.41;;;10.96;100.00
21203;BME280;10759;51.982;9.232;2023-04-01T02:15:41;98260.81;;;10.93;100.00
21203;BME280;10759;51.982;9.232;2023-04-01T02:18:11;98257.97;;;10.71;100.00
21203;BME280;10759;51.982;9.232;2023-04-01T02:20:41;98256.75;;;10.75;100.00
21203;BME280;10759;51.982;9.232;2023-04-01T02:23:13;98262.38;;;10.59;100.00
21203;BME280;10759;51.982;9.232;2023-04-01T02:25:42;98250.13;;;10.68;100.00
21203;BME280;10759;51.982;9.232;2023-04-01T02:28:12;98244.44;;;10.72;100.00
21203;BME280;10759;51.982;9.232;2023-04-01T02:30:43;98253.44;;;10.84;100.00
21203;BME280;10759;51.982;9.232;2023-04-01T02:33:12;98201.91;;;10.44;100.00
21203;BME280;10759;51.982;9.232;2023-04-01T02:35:40;98259.00;;;10.81;100.00
21203;BME280;10759;51.982;9.232;2023-04-01T02:38:08;98254.69;;;10.91;100.00
21203;BME280;10759;51.982;9.232;2023-04-01T02:40:46;98256.25;;;11.07;100.00
21203;BME280;10759;51.982;9.232;2023-04-01T02:43:15;98245.72;;;10.80;100.00
21203;BME280;10759;51.982;9.232;2023-04-01T02:45:43;98260.13;;;11.03;100.00
21203;BME280;10759;51.982;9.232;2023-04-01T02:48:11;98268.31;;;10.88;100.00
21203;BME280;10759;51.982;9.232;2023-04-01T02:50:40;98272.47;;;10.92;100.00
21203;BME280;10759;51.982;9.232;2023-04-01T02:53:08;98264.22;;;10.95;100.00
21203;BME280;10759;51.982;9.232;2023-04-01T02:55:36;98270.97;;;11.01;100.00
21203;BME280;10759;51.982;9.232;2023-04-01T02:58:05;98267.13;;;10.92;100.00
21203;BME280;10759;51.982;9.232;2023-04-01T03:00:33;98270.78;;;10.91;100.00
21203;BME280;10759;51.982;9.232;2023-04-01T03:03:01;98270.88;;;10.90;100.00
21203;BME280;10759;51.982;9.232;2023-04-01T03:05:30;98271.19;;;10.98;100.00
21203;BME280;10759;51.982;9.232;2023-04-01T03:07:58;98265.00;;;10.85;100.00
21203;BME280;10759;51.982;9.232;2023-04-01T03:10:26;98269.28;;;10.87;100.00
21203;BME280;10759;51.982;9.232;2023-04-01T03:12:54;98240.59;;;10.77;100.00
21203;BME280;10759;51.982;9.232;2023-04-01T03:15:23;98270.16;;;10.88;100.00
21203;BME280;10759;51.982;9.232;2023-04-01T03:17:51;98265.84;;;10.85;100.00
21203;BME280;10759;51.982;9.232;2023-04-01T03:20:19;98262.97;;;10.88;100.00
21203;BME280;10759;51.982;9.232;2023-04-01T03:22:46;98263.75;;;10.65;100.00
21203;BME280;10759;51.982;9.232;2023-04-01T03:25:15;98261.59;;;10.70;100.00
21203;BME280;10759;51.982;9.232;2023-04-01T03:27:43;98241.81;;;10.60;100.00
21203;BME280;10759;51.982;9.232;2023-04-01T03:30:11;98263.75;;;10.65;100.00
21203;BME280;10759;51.982;9.232;2023-04-01T03:32:49;98256.00;;;10.73;100.00
21203;BME280;10759;51.982;9.232;2023-04-01T03:35:17;98258.34;;;10.90;100.00
21203;BME280;10759;51.982;9.232;2023-04-01T03:37:45;98261.75;;;10.92;100.00
21203;BME280;10759;51.982;9.232;2023-04-01T03:40:13;98262.53;;;10.82;100.00
21203;BME280;10759;51.982;9.232;2023-04-01T03:42:41;98258.38;;;10.78;100.00
21203;BME280;10759;51.982;9.232;2023-04-01T03:45:10;98208.34;;;10.41;100.00
21203;BME280;10759;51.982;9.232;2023-04-01T03:47:39;98267.81;;;10.83;100.00
21203;BME280;10759;51.982;9.232;2023-04-01T03:50:09;98265.84;;;10.85;100.00
21203;BME280;10759;51.982;9.232;2023-04-01T03:52:37;98271.00;;;10.88;100.00
21203;BME280;10759;51.982;9.232;2023-04-01T03:55:06;98262.63;;;10.80;100.00
21203;BME280;10759;51.982;9.232;2023-04-01T03:57:35;98275.97;;;10.69;100.00
21203;BME280;10759;51.982;9.232;2023-04-01T04:00:13;98252.63;;;10.71;100.00
21203;BME280;10759;51.982;9.232;2023-04-01T04:02:43;98246.09;;;10.62;100.00
21203;BME280;10759;51.982;9.232;2023-04-01T04:05:17;98250.25;;;10.66;100.00
21203;BME280;10759;51.982;9.232;2023-04-01T04:07:44;98277.44;;;10.86;100.00
21203;BME280;10759;51.982;9.232;2023-04-01T04:10:12;98271.66;;;10.79;100.00
21203;BME280;10759;51.982;9.232;2023-04-01T04:12:40;98275.66;;;10.73;100.00
21203;BME280;10759;51.982;9.232;2023-04-01T04:15:09;98273.34;;;10.80;100.00
21203;BME280;10759;51.982;9.232;2023-04-01T04:17:38;98274.75;;;10.73;100.00
21203;BME280;10759;51.982;9.232;2023-04-01T04:20:07;98265.81;;;10.61;100.00
21203;BME280;10759;51.982;9.232;2023-04-01T04:22:36;98275.88;;;10.58;100.00
21203;BME280;10759;51.982;9.232;2023-04-01T04:25:07;98279.06;;;10.63;100.00
21203;BME280;10759;51.982;9.232;2023-04-01T04:27:36;98273.41;;;10.55;100.00
21203;BME280;10759;51.982;9.232;2023-04-01T04:30:09;98219.22;;;10.38;100.00
21203;BME280;10759;51.982;9.232;2023-04-01T04:32:37;98267.47;;;10.75;100.00
21203;BME280;10759;51.982;9.232;2023-04-01T04:35:06;98262.25;;;10.61;100.00
21203;BME280;10759;51.982;9.232;2023-04-01T04:37:34;98269.97;;;10.78;100.00
21203;BME280;10759;51.982;9.232;2023-04-01T04:40:04;98280.13;;;10.73;100.00
21203;BME280;10759;51.982;9.232;2023-04-01T04:42:32;98287.97;;;10.50;100.00
21203;BME280;10759;51.982;9.232;2023-04-01T04:45:06;98286.91;;;10.40;100.00
21203;BME280;10759;51.982;9.232;2023-04-01T04:47:37;98278.53;;;10.58;100.00
21203;BME280;10759;51.982;9.232;2023-04-01T04:50:07;98280.56;;;10.67;100.00
21203;BME280;10759;51.982;9.232;2023-04-01T04:52:36;98291.72;;;10.73;100.00
21203;BME280;10759;51.982;9.232;2023-04-01T04:55:07;98284.22;;;10.66;100.00
21203;BME280;10759;51.982;9.232;2023-04-01T04:57:35;98293.00;;;10.68;100.00
21203;BME280;10759;51.982;9.232;2023-04-01T05:00:04;98303.06;;;10.64;100.00
21203;BME280;10759;51.982;9.232;2023-04-01T05:02:46;98294.41;;;10.73;100.00
21203;BME280;10759;51.982;9.232;2023-04-01T05:05:14;98302.22;;;10.64;100.00
21203;BME280;10759;51.982;9.232;2023-04-01T05:07:42;98301.88;;;10.56;100.00
21203;BME280;10759;51.982;9.232;2023-04-01T05:10:11;98301.25;;;10.52;100.00
21203;BME280;10759;51.982;9.232;2023-04-01T05:12:39;98287.97;;;10.50;100.00
21203;BME280;10759;51.982;9.232;2023-04-01T05:15:09;98304.69;;;10.67;100.00
21203;BME280;10759;51.982;9.232;2023-04-01T05:17:38;98308.34;;;10.66;100.00
21203;BME280;10759;51.982;9.232;2023-04-01T05:20:07;98311.53;;;10.58;100.00
21203;BME280;10759;51.982;9.232;2023-04-01T05:22:35;98309.94;;;10.56;100.00
21203;BME280;10759;51.982;9.232;2023-04-01T05:25:03;98314.63;;;10.65;100.00
21203;BME280;10759;51.982;9.232;2023-04-01T05:27:33;98290.13;;;10.71;100.00
21203;BME280;10759;51.982;9.232;2023-04-01T05:30:01;98315.56;;;10.89;100.00
21203;BME280;10759;51.982;9.232;2023-04-01T05:32:41;98309.38;;;10.76;100.00
21203;BME280;10759;51.982;9.232;2023-04-01T05:35:10;98301.34;;;10.76;100.00
21203;BME280;10759;51.982;9.232;2023-04-01T05:37:38;98317.44;;;10.76;100.00
21203;BME280;10759;51.982;9.232;2023-04-01T05:40:07;98317.00;;;10.69;100.00
21203;BME280;10759;51.982;9.232;2023-04-01T05:42:37;98305.09;;;10.61;100.00
21203;BME280;10759;51.982;9.232;2023-04-01T05:45:06;98301.47;;;10.62;100.00
21203;BME280;10759;51.982;9.232;2023-04-01T05:48:04;98317.56;;;10.49;100.00
21203;BME280;10759;51.982;9.232;2023-04-01T05:50:39;98319.91;;;10.66;100.00
21203;BME280;10759;51.982;9.232;2023-04-01T05:53:09;98317.09;;;10.68;100.00
21203;BME280;10759;51.982;9.232;2023-04-01T05:55:40;98318.09;;;10.54;100.00
21203;BME280;10759;51.982;9.232;2023-04-01T05:58:09;98315.16;;;10.70;100.00
21203;BME280;10759;51.982;9.232;2023-04-01T06:00:39;98316.25;;;10.67;100.00
21203;BME280;10759;51.982;9.232;2023-04-01T06:03:07;98312.63;;;10.68;100.00
21203;BME280;10759;51.982;9.232;2023-04-01T06:05:40;98315.06;;;10.46;100.00
21203;BME280;10759;51.982;9.232;2023-04-01T06:08:13;98314.03;;;10.48;100.00
21203;BME280;10759;51.982;9.232;2023-04-01T06:10:55;98329.56;;;10.56;100.00
21203;BME280;10759;51.982;9.232;2023-04-01T06:13:38;98324.72;;;10.74;100.00
21203;BME280;10759;51.982;9.232;2023-04-01T06:16:15;98324.63;;;10.76;100.00
21203;BME280;10759;51.982;9.232;2023-04-01T06:18:56;98305.66;;;10.66;100.00
21203;BME280;10759;51.982;9.232;2023-04-01T06:21:58;98319.66;;;10.82;100.00
21203;BME280;10759;51.982;9.232;2023-04-01T06:24:44;98330.06;;;10.74;100.00
21203;BME280;10759;51.982;9.232;2023-04-01T06:27:36;98330.13;;;10.85;100.00
21203;BME280;10759;51.982;9.232;2023-04-01T06:30:24;98335.38;;;11.00;100.00
21203;BME280;10759;51.982;9.232;2023-04-01T06:36:00;98290.38;;;10.92;100.00
21203;BME280;10759;51.982;9.232;2023-04-01T06:38:53;98331.16;;;11.21;100.00
21203;BME280;10759;51.982;9.232;2023-04-01T06:44:21;98341.97;;;11.32;100.00
21203;BME280;10759;51.982;9.232;2023-04-01T06:47:23;98334.28;;;11.15;100.00
21203;BME280;10759;51.982;9.232;2023-04-01T06:50:21;98345.16;;;11.37;100.00
21203;BME280;10759;51.982;9.232;2023-04-01T06:53:20;98342.91;;;11.31;100.00
21203;BME280;10759;51.982;9.232;2023-04-01T06:56:10;98340.50;;;11.15;100.00
21203;BME280;10759;51.982;9.232;2023-04-01T06:59:04;98347.69;;;11.15;100.00
21203;BME280;10759;51.982;9.232;2023-04-01T07:01:37;98344.03;;;11.16;100.00
21203;BME280;10759;51.982;9.232;2023-04-01T07:04:11;98354.81;;;10.90;100.00
21203;BME280;10759;51.982;9.232;2023-04-01T07:06:46;98340.19;;;11.07;100.00
21203;BME280;10759;51.982;9.232;2023-04-01T07:09:18;98349.81;;;11.23;100.00
21203;BME280;10759;51.982;9.232;2023-04-01T07:12:35;98354.09;;;11.25;100.00
21203;BME280;10759;51.982;9.232;2023-04-01T07:15:44;98335.91;;;11.05;100.00
21203;BME280;10759;51.982;9.232;2023-04-01T07:18:16;98353.06;;;11.15;100.00
21203;BME280;10759;51.982;9.232;2023-04-01T07:20:48;98365.41;;;10.92;100.00
21203;BME280;10759;51.982;9.232;2023-04-01T07:23:21;98364.25;;;10.83;100.00
21203;BME280;10759;51.982;9.232;2023-04-01T07:26:15;98362.19;;;10.87;100.00
21203;BME280;10759;51.982;9.232;2023-04-01T07:29:10;98361.41;;;11.10;100.00
21203;BME280;10759;51.982;9.232;2023-04-01T07:32:01;98284.56;;;10.48;100.00
21203;BME280;10759;51.982;9.232;2023-04-01T07:34:36;98368.06;;;11.05;100.00
21203;BME280;10759;51.982;9.232;2023-04-01T07:37:12;98371.06;;;11.13;100.00
21203;BME280;10759;51.982;9.232;2023-04-01T07:39:48;98370.22;;;11.36;100.00
21203;BME280;10759;51.982;9.232;2023-04-01T07:42:33;98384.34;;;11.27;100.00
21203;BME280;10759;51.982;9.232;2023-04-01T07:45:13;98369.34;;;11.12;100.00
21203;BME280;10759;51.982;9.232;2023-04-01T07:47:59;98384.63;;;11.35;100.00
21203;BME280;10759;51.982;9.232;2023-04-01T07:50:38;98388.06;;;11.25;100.00
21203;BME280;10759;51.982;9.232;2023-04-01T07:53:18;98382.56;;;11.39;100.00
21203;BME280;10759;51.982;9.232;2023-04-01T07:56:01;98382.91;;;11.34;100.00
21203;BME280;10759;51.982;9.232;2023-04-01T07:58:44;98386.97;;;11.40;100.00
21203;BME280;10759;51.982;9.232;2023-04-01T08:01:39;98394.31;;;11.62;100.00
21203;BME280;10759;51.982;9.232;2023-04-01T08:04:23;98393.03;;;11.55;100.00
21203;BME280;10759;51.982;9.232;2023-04-01T08:06:57;98403.16;;;11.38;100.00
21203;BME280;10759;51.982;9.232;2023-04-01T08:09:38;98404.38;;;11.58;100.00
21203;BME280;10759;51.982;9.232;2023-04-01T08:12:37;98380.91;;;11.49;100.00
21203;BME280;10759;51.982;9.232;2023-04-01T08:15:42;98406.91;;;11.73;100.00
21203;BME280;10759;51.982;9.232;2023-04-01T08:18:33;98323.06;;;11.34;100.00
21203;BME280;10759;51.982;9.232;2023-04-01T08:21:08;98295.94;;;11.02;100.00
21203;BME280;10759;51.982;9.232;2023-04-01T08:23:40;98415.25;;;11.94;100.00
21203;BME280;10759;51.982;9.232;2023-04-01T08:26:18;98419.91;;;12.03;100.00
21203;BME280;10759;51.982;9.232;2023-04-01T08:28:54;98430.50;;;11.80;100.00
21203;BME280;10759;51.982;9.232;2023-04-01T08:31:30;98426.88;;;11.81;100.00
21203;BME280;10759;51.982;9.232;2023-04-01T08:34:01;98425.66;;;11.86;100.00
21203;BME280;10759;51.982;9.232;2023-04-01T08:36:35;98434.59;;;11.73;100.00
21203;BME280;10759;51.982;9.232;2023-04-01T08:39:18;98429.00;;;11.89;100.00
21203;BME280;10759;51.982;9.232;2023-04-01T08:45:23;98434.25;;;11.91;100.00
21203;BME280;10759;51.982;9.232;2023-04-01T08:48:33;98424.03;;;11.83;100.00
21203;BME280;10759;51.982;9.232;2023-04-01T08:51:48;98438.50;;;11.69;100.00
21203;BME280;10759;51.982;9.232;2023-04-01T08:54:34;98440.34;;;11.93;100.00
21203;BME280;10759;51.982;9.232;2023-04-01T08:57:13;98439.00;;;11.74;100.00
21203;BME280;10759;51.982;9.232;2023-04-01T09:00:15;98440.78;;;11.99;100.00
21203;BME280;10759;51.982;9.232;2023-04-01T09:06:26;98441.28;;;12.05;100.00
21203;BME280;10759;51.982;9.232;2023-04-01T09:09:12;98413.16;;;12.21;100.00
21203;BME280;10759;51.982;9.232;2023-04-01T09:12:02;98442.22;;;12.28;100.00
21203;BME280;10759;51.982;9.232;2023-04-01T09:14:53;98448.47;;;12.04;100.00
21203;BME280;10759;51.982;9.232;2023-04-01T09:17:50;98442.41;;;12.13;100.00
21203;BME280;10759;51.982;9.232;2023-04-01T09:20:33;98450.75;;;12.45;100.00
21203;BME280;10759;51.982;9.232;2023-04-01T09:23:21;98452.34;;;12.48;100.00
21203;BME280;10759;51.982;9.232;2023-04-01T09:26:07;98458.28;;;12.76;100.00
21203;BME280;10759;51.982;9.232;2023-04-01T09:28:42;98432.47;;;12.27;100.00
21203;BME280;10759;51.982;9.232;2023-04-01T09:31:23;98460.97;;;12.76;100.00
21203;BME280;10759;51.982;9.232;2023-04-01T09:34:52;98466.06;;;12.67;100.00
21203;BME280;10759;51.982;9.232;2023-04-01T09:37:35;98469.97;;;12.75;100.00
21203;BME280;10759;51.982;9.232;2023-04-01T09:40:16;98467.06;;;12.78;100.00
21203;BME280;10759;51.982;9.232;2023-04-01T09:43:06;98476.13;;;12.53;100.00
21203;BME280;10759;51.982;9.232;2023-04-01T09:45:46;98480.72;;;12.63;100.00
21203;BME280;10759;51.982;9.232;2023-04-01T09:48:24;98472.94;;;12.48;100.00
21203;BME280;10759;51.982;9.232;2023-04-01T09:51:06;98479.72;;;12.64;100.00
21203;BME280;10759;51.982;9.232;2023-04-01T09:53:52;98484.09;;;12.54;100.00
21203;BME280;10759;51.982;9.232;2023-04-01T09:56:40;98482.69;;;12.73;100.00
21203;BME280;10759;51.982;9.232;2023-04-01T09:59:29;98476.34;;;12.74;100.00
21203;BME280;10759;51.982;9.232;2023-04-01T10:05:27;98482.34;;;12.88;100.00
21203;BME280;10759;51.982;9.232;2023-04-01T10:17:43;98492.34;;;13.22;100.00
21203;BME280;10759;51.982;9.232;2023-04-01T10:20:27;98490.59;;;13.21;100.00
21203;BME280;10759;51.982;9.232;2023-04-01T10:23:21;98494.44;;;13.41;100.00
21203;BME280;10759;51.982;9.232;2023-04-01T10:26:25;98492.72;;;13.51;100.00
21203;BME280;10759;51.982;9.232;2023-04-01T10:32:29;98490.09;;;13.16;100.00
21203;BME280;10759;51.982;9.232;2023-04-01T10:35:44;98477.44;;;13.29;100.00
21203;BME280;10759;51.982;9.232;2023-04-01T10:41:41;98473.38;;;13.12;100.00
21203;BME280;10759;51.982;9.232;2023-04-01T10:45:08;98498.66;;;13.21;100.00
21203;BME280;10759;51.982;9.232;2023-04-01T10:48:19;98506.00;;;13.19;100.00
21203;BME280;10759;51.982;9.232;2023-04-01T10:51:04;98508.03;;;13.39;100.00
21203;BME280;10759;51.982;9.232;2023-04-01T10:54:02;98510.06;;;13.24;100.00
21203;BME280;10759;51.982;9.232;2023-04-01T10:57:08;98497.31;;;13.26;100.00
21203;BME280;10759;51.982;9.232;2023-04-01T11:00:58;98510.44;;;13.31;100.00
21203;BME280;10759;51.982;9.232;2023-04-01T11:08:03;98508.25;;;13.47;100.00
21203;BME280;10759;51.982;9.232;2023-04-01T11:10:57;98522.22;;;13.64;100.00
21203;BME280;10759;51.982;9.232;2023-04-01T11:13:52;98521.13;;;13.66;100.00
21203;BME280;10759;51.982;9.232;2023-04-01T11:16:59;98517.44;;;13.67;100.00
21203;BME280;10759;51.982;9.232;2023-04-01T11:19:56;98526.13;;;13.71;100.00
21203;BME280;10759;51.982;9.232;2023-04-01T11:22:58;98523.44;;;13.37;100.00
21203;BME280;10759;51.982;9.232;2023-04-01T11:25:50;98534.44;;;13.45;100.00
21203;BME280;10759;51.982;9.232;2023-04-01T11:29:09;98510.53;;;13.18;100.00
21203;BME280;10759;51.982;9.232;2023-04-01T11:31:53;98539.06;;;13.32;100.00
21203;BME280;10759;51.982;9.232;2023-04-01T11:34:47;98534.91;;;13.28;100.00
21203;BME280;10759;51.982;9.232;2023-04-01T11:37:28;98535.47;;;13.20;100.00
21203;BME280;10759;51.982;9.232;2023-04-01T11:40:43;98499.56;;;13.55;100.00
21203;BME280;10759;51.982;9.232;2023-04-01T11:43:36;98435.09;;;12.97;98.70
21203;BME280;10759;51.982;9.232;2023-04-01T11:46:41;98536.03;;;13.82;97.87
21203;BME280;10759;51.982;9.232;2023-04-01T11:49:25;98547.16;;;13.77;100.00
21203;BME280;10759;51.982;9.232;2023-04-01T11:55:14;98548.50;;;13.60;95.53
21203;BME280;10759;51.982;9.232;2023-04-01T11:57:52;98555.16;;;14.33;97.94
21203;BME280;10759;51.982;9.232;2023-04-01T12:06:36;98560.28;;;14.48;95.91
21203;BME280;10759;51.982;9.232;2023-04-01T12:09:13;98563.03;;;14.03;97.00
21203;BME280;10759;51.982;9.232;2023-04-01T12:11:51;98553.59;;;14.31;96.86
21203;BME280;10759;51.982;9.232;2023-04-01T12:14:37;98558.41;;;14.05;94.86
21203;BME280;10759;51.982;9.232;2023-04-01T12:17:16;98566.53;;;14.37;93.26
21203;BME280;10759;51.982;9.232;2023-04-01T12:19:56;98559.56;;;14.34;92.76
21203;BME280;10759;51.982;9.232;2023-04-01T12:22:40;98573.28;;;14.31;92.56
21203;BME280;10759;51.982;9.232;2023-04-01T12:25:22;98531.00;;;13.66;93.79
21203;BME280;10759;51.982;9.232;2023-04-01T12:28:00;98577.03;;;14.08;94.12
21203;BME280;10759;51.982;9.232;2023-04-01T12:30:42;98569.88;;;14.29;95.98
21203;BME280;10759;51.982;9.232;2023-04-01T12:33:45;98556.66;;;14.26;94.41
21203;BME280;10759;51.982;9.232;2023-04-01T12:36:30;98569.84;;;14.41;93.70
21203;BME280;10759;51.982;9.232;2023-04-01T12:39:19;98570.00;;;14.05;96.05
21203;BME280;10759;51.982;9.232;2023-04-01T12:41:54;98589.34;;;14.33;96.42
21203;BME280;10759;51.982;9.232;2023-04-01T12:44:41;98597.75;;;14.39;100.00
21203;BME280;10759;51.982;9.232;2023-04-01T12:47:43;98590.47;;;14.08;98.13
21203;BME280;10759;51.982;9.232;2023-04-01T12:50:31;98597.81;;;14.06;99.15
21203;BME280;10759;51.982;9.232;2023-04-01T12:53:16;98606.63;;;14.08;100.00
21203;BME280;10759;51.982;9.232;2023-04-01T12:55:49;98597.06;;;13.70;100.00
21203;BME280;10759;51.982;9.232;2023-04-01T13:01:40;98607.50;;;13.28;100.00
21203;BME280;10759;51.982;9.232;2023-04-01T13:04:29;98531.59;;;12.54;100.00
21203;BME280;10759;51.982;9.232;2023-04-01T13:10:14;98601.97;;;12.83;100.00
21203;BME280;10759;51.982;9.232;2023-04-01T13:13:02;98584.69;;;12.74;100.00
21203;BME280;10759;51.982;9.232;2023-04-01T13:15:37;98629.34;;;12.88;100.00
21203;BME280;10759;51.982;9.232;2023-04-01T13:18:18;98629.19;;;13.14;100.00
21203;BME280;10759;51.982;9.232;2023-04-01T13:20:55;98627.00;;;13.19;100.00
21203;BME280;10759;51.982;9.232;2023-04-01T13:23:36;98634.97;;;13.20;100.00
21203;BME280;10759;51.982;9.232;2023-04-01T13:26:15;98646.16;;;13.03;100.00
21203;BME280;10759;51.982;9.232;2023-04-01T13:28:50;98641.19;;;13.09;100.00
21203;BME280;10759;51.982;9.232;2023-04-01T13:31:33;98629.84;;;12.69;100.00
21203;BME280;10759;51.982;9.232;2023-04-01T13:34:15;98648.59;;;12.82;100.00
21203;BME280;10759;51.982;9.232;2023-04-01T13:36:57;98637.25;;;13.02;100.00
21203;BME280;10759;51.982;9.232;2023-04-01T13:39:39;98636.38;;;12.78;100.00
21203;BME280;10759;51.982;9.232;2023-04-01T13:42:17;98656.81;;;12.80;100.00
21203;BME280;10759;51.982;9.232;2023-04-01T13:44:53;98642.19;;;13.20;100.00
21203;BME280;10759;51.982;9.232;2023-04-01T13:48:00;98654.53;;;13.58;100.00
21203;BME280;10759;51.982;9.232;2023-04-01T13:51:03;98655.81;;;13.76;100.00
21203;BME280;10759;51.982;9.232;2023-04-01T13:54:03;98655.91;;;13.63;100.00
21203;BME280;10759;51.982;9.232;2023-04-01T13:56:42;98664.50;;;13.33;100.00
21203;BME280;10759;51.982;9.232;2023-04-01T13:59:30;98663.63;;;13.57;100.00
21203;BME280;10759;51.982;9.232;2023-04-01T14:02:21;98663.69;;;13.44;100.00
21203;BME280;10759;51.982;9.232;2023-04-01T14:08:09;98665.88;;;13.15;100.00
21203;BME280;10759;51.982;9.232;2023-04-01T14:10:46;98665.41;;;13.21;100.00
21203;BME280;10759;51.982;9.232;2023-04-01T14:13:23;98679.88;;;13.55;100.00
21203;BME280;10759;51.982;9.232;2023-04-01T14:16:19;98681.16;;;13.73;100.00
21203;BME280;10759;51.982;9.232;2023-04-01T14:19:09;98670.22;;;13.64;100.00
21203;BME280;10759;51.982;9.232;2023-04-01T14:21:43;98660.19;;;13.66;100.00
21203;BME280;10759;51.982;9.232;2023-04-01T14:24:22;98692.47;;;13.66;100.00
21203;BME280;10759;51.982;9.232;2023-04-01T14:27:09;98671.03;;;13.53;100.00
21203;BME280;10759;51.982;9.232;2023-04-01T14:29:50;98696.66;;;13.59;100.00
21203;BME280;10759;51.982;9.232;2023-04-01T14:32:32;98682.28;;;13.47;98.45
21203;BME280;10759;51.982;9.232;2023-04-01T14:35:22;98709.34;;;13.57;98.41
21203;BME280;10759;51.982;9.232;2023-04-01T14:38:04;98709.09;;;13.60;99.24
21203;BME280;10759;51.982;9.232;2023-04-01T14:40:45;98707.41;;;13.59;100.00
21203;BME280;10759;51.982;9.232;2023-04-01T14:43:33;98721.31;;;13.52;100.00
21203;BME280;10759;51.982;9.232;2023-04-01T14:46:23;98716.19;;;13.49;100.00
21203;BME280;10759;51.982;9.232;2023-04-01T14:48:57;98720.34;;;13.53;100.00
21203;BME280;10759;51.982;9.232;2023-04-01T14:51:30;98727.84;;;13.61;100.00
21203;BME280;10759;51.982;9.232;2023-04-01T14:54:04;98725.69;;;13.42;100.00
21203;BME280;10759;51.982;9.232;2023-04-01T14:56:38;98736.78;;;13.38;100.00
21203;BME280;10759;51.982;9.232;2023-04-01T14:59:14;98630.38;;;12.74;100.00